Rocky Mountain Metropolitan Airport
KBJC : rendu visible

Aérodrome :











RETROUVEZ-NOUS SUR...

 
LOGIN :

S'inscrire | Disclaimer

   EN    FR    IT 

 









Légende :    VFR   VFR Marginal   IFR   IFR Intensif   IFR Très Intensif
Visi : 
Plafond : 
>= 8 km
>= 3000ft
5 à 8 km
1000 à 3000 ft
1500m à 5 km
500 à 1000 ft
800 à 1500m
200 à 500 ft
< 800m
< 200 ft
Symboles :   Orages  Brouillard  Fortes neiges  Fortes précipitations  Vent > 20 kt






- Altitude de l'aérodrome : 5673 ft


KBJC - Rocky Mountain Metropolitan

DERNIER METAR :
  • 241054Z AUTO 26005KT 10SM CLR 16/M02 A3013 RMK AO2

METARs EXPIRÉS :
  • 241030Z AUTO 26008KT 10SM CLR 16/M02 A3014 RMK AO2
  • 241012Z AUTO 26008KT 10SM CLR 15/M02 A3014 RMK AO2
  • 240954Z AUTO 27010KT 10SM CLR 15/M02 A3014 RMK AO2
  • 240930Z AUTO 28003KT 10SM CLR 16/M02 A3015 RMK AO2
  • 240912Z AUTO 24003KT 10SM CLR 17/M02 A3015 RMK AO2
  • 240853Z AUTO 27003KT 10SM CLR 16/M02 A3015 RMK AO2
  • 240829Z AUTO 28003KT 10SM CLR 17/M02 A3016 RMK AO2
  • 240812Z AUTO 00000KT 10SM CLR 17/M02 A3016 RMK AO2

TAF KBJC
Valide du 24 à 06h jusqu'au 25 à 06h UTC


240545Z 2406/2506 VRB05KT P6SM FEW120 BKN220
FM241800 10007KT P6SM FEW120
FM250200 24007KT P6SM FEW120
FIR KZDV / Amérique du Nord



MET'MAP, la Météo Aéronautique d'un coup d'oeil ! - Copyright ORBIFLY Décembre 2007 - Disclaimer

ORBIFLY MET'MAP TEAM :

Programmation & Développement : Alexandra Zaïnal
Sur une idée originale de : Baudouin d'Aumeries
Assistance à la programmation : Marc-Olivier Méhu
Soutien technique & logistique : Manuel Goepfert

Contact : metmap@orbifly.com




SOURCES & CREDITS :

   NOAA       Earth
Advisory